Time;durP1;ratioP1;P1;durP2;ratioP2;P2;SDS_P1;SDS_P2;PMS_P1;PMS_P2;Temp;Humidity;BMP_temperature;BMP_pressure;BME280_temperature;BME280_humidity;BME280_pressure;Samples;Min_cycle;Max_cycle;Signal;HPM_P1;HPM_P2
2021/09/03 00:01:28;;;;;;;8.57;5.47;;;9.00;99.90;;;;;;4994571;28;20033;-45
2021/09/03 00:03:54;;;;;;;9.40;6.30;;;9.00;99.90;;;;;;4995619;28;20069;-43
2021/09/03 00:06:19;;;;;;;7.75;5.63;;;9.00;99.90;;;;;;4995620;28;20105;-42
2021/09/03 00:08:45;;;;;;;6.72;4.65;;;9.00;99.90;;;;;;4995617;28;20109;-44
2021/09/03 00:11:11;;;;;;;9.20;4.97;;;9.00;99.90;;;;;;4995563;28;20030;-45
2021/09/03 00:13:36;;;;;;;8.57;5.40;;;8.90;99.90;;;;;;4994757;28;20037;-44
2021/09/03 00:16:02;;;;;;;8.63;5.10;;;8.90;99.90;;;;;;4994371;28;20342;-46
2021/09/03 00:18:28;;;;;;;8.10;5.45;;;8.90;99.90;;;;;;4995347;28;20022;-44
2021/09/03 00:20:54;;;;;;;11.13;6.68;;;8.90;99.90;;;;;;4995347;28;20045;-43
2021/09/03 00:23:19;;;;;;;8.70;5.72;;;8.90;99.90;;;;;;4995278;28;20466;-43
2021/09/03 00:25:45;;;;;;;7.68;4.97;;;8.80;99.90;;;;;;4995302;28;20114;-45
2021/09/03 00:28:11;;;;;;;6.72;4.97;;;8.80;99.90;;;;;;4995267;28;20042;-48
2021/09/03 00:30:36;;;;;;;7.82;4.80;;;8.70;99.90;;;;;;4994132;28;20026;-43
2021/09/03 00:33:02;;;;;;;8.27;5.65;;;8.70;99.90;;;;;;4995222;28;20439;-43
2021/09/03 00:35:28;;;;;;;10.68;5.90;;;8.70;99.90;;;;;;4995009;28;20026;-43
2021/09/03 00:37:53;;;;;;;7.55;4.80;;;8.60;99.90;;;;;;4995172;28;20627;-44
2021/09/03 00:40:18;;;;;;;6.53;4.40;;;8.60;99.90;;;;;;4994941;28;20031;-43
2021/09/03 00:42:44;;;;;;;7.35;5.45;;;8.70;99.90;;;;;;4994968;28;20030;-43
2021/09/03 00:45:10;;;;;;;5.75;4.28;;;8.60;99.90;;;;;;4993919;28;20026;-42
2021/09/03 00:47:36;;;;;;;8.38;5.32;;;8.60;99.90;;;;;;4994845;28;20033;-43
2021/09/03 00:50:03;;;;;;;8.75;5.88;;;8.60;99.90;;;;;;4994854;28;20390;-42
2021/09/03 00:52:29;;;;;;;10.57;5.95;;;8.60;99.90;;;;;;4994785;28;20084;-43
2021/09/03 00:54:58;;;;;;;8.43;5.75;;;8.60;99.90;;;;;;4994739;28;20217;-43
2021/09/03 00:57:25;;;;;;;9.25;6.20;;;8.60;99.90;;;;;;4994568;28;20029;-43
2021/09/03 00:59:53;;;;;;;9.98;6.22;;;8.60;99.90;;;;;;4994541;28;20018;-44
2021/09/03 01:02:23;;;;;;;11.60;6.40;;;8.50;99.90;;;;;;4993624;28;20030;-42
2021/09/03 01:04:49;;;;;;;7.97;5.55;;;8.60;99.90;;;;;;4994372;28;20049;-43
2021/09/03 01:07:15;;;;;;;9.18;5.75;;;8.50;99.90;;;;;;4994491;28;20484;-42
2021/09/03 01:09:41;;;;;;;8.18;5.82;;;8.50;99.90;;;;;;4994470;28;20113;-45
2021/09/03 01:12:07;;;;;;;7.07;5.13;;;8.50;99.90;;;;;;4994441;28;20130;-43
2021/09/03 01:14:33;;;;;;;7.63;5.68;;;8.50;99.90;;;;;;4994191;28;20039;-43
2021/09/03 01:16:58;;;;;;;9.60;6.20;;;8.50;99.90;;;;;;4993309;28;20493;-45
2021/09/03 01:19:24;;;;;;;6.97;5.43;;;8.50;99.90;;;;;;4994171;28;20045;-46
2021/09/03 01:21:51;;;;;;;8.45;6.40;;;8.40;99.90;;;;;;4994325;28;20052;-46
2021/09/03 01:24:18;;;;;;;9.32;5.57;;;8.40;99.90;;;;;;4993859;28;20379;-44
2021/09/03 01:26:44;;;;;;;7.13;4.90;;;8.40;99.90;;;;;;4993522;28;20036;-46
2021/09/03 01:29:09;;;;;;;6.80;4.97;;;8.40;99.90;;;;;;4994048;28;20022;-42
2021/09/03 01:31:35;;;;;;;7.25;5.40;;;8.30;99.90;;;;;;4993056;28;20451;-43
2021/09/03 01:34:00;;;;;;;6.30;4.53;;;8.40;99.90;;;;;;4994095;28;20489;-44
2021/09/03 01:36:29;;;;;;;6.10;4.45;;;8.30;99.90;;;;;;4993921;28;20030;-42
2021/09/03 01:38:55;;;;;;;7.40;5.35;;;8.30;99.90;;;;;;4993953;28;20462;-42
2021/09/03 01:41:22;;;;;;;8.85;5.28;;;8.30;99.90;;;;;;4994048;28;20034;-48
2021/09/03 01:43:47;;;;;;;9.05;5.55;;;8.30;99.90;;;;;;4993773;28;20019;-45
2021/09/03 01:46:13;;;;;;;10.40;5.15;;;8.30;99.90;;;;;;4992908;28;20072;-44
2021/09/03 01:48:38;;;;;;;12.38;5.72;;;8.30;99.90;;;;;;4993697;28;20421;-45
2021/09/03 01:51:04;;;;;;;10.40;5.65;;;8.30;99.90;;;;;;4993772;28;20034;-45
2021/09/03 01:53:29;;;;;;;7.65;5.97;;;8.30;99.90;;;;;;4993621;28;20033;-45
2021/09/03 01:55:55;;;;;;;15.45;5.97;;;8.30;99.90;;;;;;4993733;28;20030;-45
2021/09/03 01:58:20;;;;;;;9.75;5.47;;;8.30;99.90;;;;;;4993490;28;20559;-43
2021/09/03 02:00:46;;;;;;;7.68;5.53;;;8.30;99.90;;;;;;4992631;28;20018;-48
2021/09/03 02:03:14;;;;;;;9.07;6.43;;;8.20;99.90;;;;;;4993628;28;20389;-48
2021/09/03 02:05:40;;;;;;;9.90;6.45;;;8.20;99.90;;;;;;4993344;28;20050;-48
2021/09/03 02:08:06;;;;;;;12.90;6.93;;;8.20;99.90;;;;;;4993504;28;20048;-47
2021/09/03 02:10:31;;;;;;;10.60;6.85;;;8.30;99.90;;;;;;4993444;28;20485;-43
2021/09/03 02:12:57;;;;;;;13.18;6.70;;;8.20;99.90;;;;;;4993365;28;20536;-45
2021/09/03 02:15:23;;;;;;;10.90;6.38;;;8.30;99.90;;;;;;4992428;28;20106;-44
2021/09/03 02:17:48;;;;;;;14.45;7.85;;;8.30;99.90;;;;;;4993291;28;20470;-43
2021/09/03 02:20:14;;;;;;;9.80;5.80;;;8.30;99.90;;;;;;4993434;28;20027;-43
2021/09/03 02:22:39;;;;;;;8.48;5.90;;;8.30;99.90;;;;;;4993342;28;20038;-47
2021/09/03 02:25:05;;;;;;;9.90;6.32;;;8.30;99.90;;;;;;4993392;28;20057;-45
2021/09/03 02:27:30;;;;;;;14.02;7.38;;;8.20;99.90;;;;;;4993083;28;20101;-43
2021/09/03 02:29:56;;;;;;;9.93;6.57;;;8.30;99.90;;;;;;4992963;28;20031;-45
2021/09/03 02:32:22;;;;;;;17.45;8.82;;;8.20;99.90;;;;;;4992656;28;20041;-45
2021/09/03 02:34:48;;;;;;;13.55;7.55;;;8.30;99.90;;;;;;4992955;28;20082;-43
2021/09/03 02:37:14;;;;;;;16.60;8.57;;;8.30;99.90;;;;;;4995498;28;20031;-45
2021/09/03 02:39:40;;;;;;;11.25;6.93;;;8.30;99.90;;;;;;4997062;28;20027;-46
2021/09/03 02:42:05;;;;;;;12.32;6.70;;;8.30;99.90;;;;;;4997097;28;20023;-44
2021/09/03 02:44:31;;;;;;;11.20;7.65;;;8.30;99.90;;;;;;4996975;28;20045;-43
2021/09/03 02:46:56;;;;;;;12.57;7.15;;;8.30;99.90;;;;;;4996170;28;20438;-45
2021/09/03 02:49:22;;;;;;;11.98;7.38;;;8.30;99.90;;;;;;4997008;28;20023;-44
2021/09/03 02:51:47;;;;;;;15.85;7.28;;;8.30;99.90;;;;;;4996860;28;20025;-45
2021/09/03 02:54:13;;;;;;;12.25;7.07;;;8.30;99.90;;;;;;4996970;28;20117;-46
2021/09/03 02:56:38;;;;;;;13.05;7.60;;;8.30;99.90;;;;;;4996918;28;20073;-42
2021/09/03 02:59:03;;;;;;;19.50;10.70;;;8.20;99.90;;;;;;4996984;28;20033;-46
2021/09/03 03:01:29;;;;;;;21.42;11.93;;;8.30;99.90;;;;;;4995999;28;20022;-44
2021/09/03 03:03:55;;;;;;;25.33;14.27;;;8.30;99.90;;;;;;4996673;28;20050;-48
2021/09/03 03:06:20;;;;;;;29.58;14.43;;;8.30;99.90;;;;;;4996748;28;20113;-43
2021/09/03 03:08:46;;;;;;;16.17;10.30;;;8.30;99.90;;;;;;4996606;28;20414;-44
2021/09/03 03:11:11;;;;;;;16.75;10.48;;;8.30;99.90;;;;;;4996583;28;20466;-45
2021/09/03 03:13:37;;;;;;;24.23;11.07;;;8.20;99.90;;;;;;4996552;28;20034;-46
2021/09/03 03:16:03;;;;;;;22.50;10.35;;;8.20;99.90;;;;;;4995567;28;20069;-44
2021/09/03 03:18:29;;;;;;;17.67;9.77;;;8.20;99.90;;;;;;4996536;28;20054;-43
2021/09/03 03:20:54;;;;;;;22.05;10.25;;;8.20;99.90;;;;;;4996409;28;20061;-45
2021/09/03 03:23:20;;;;;;;14.40;9.10;;;8.20;99.90;;;;;;4996555;28;20029;-43
2021/09/03 03:25:46;;;;;;;17.88;9.70;;;8.20;99.90;;;;;;4996171;28;20061;-47
2021/09/03 03:28:12;;;;;;;17.85;9.60;;;8.10;99.90;;;;;;4996320;28;20030;-43
2021/09/03 03:30:38;;;;;;;17.90;9.50;;;8.20;99.90;;;;;;4995332;28;20034;-44
2021/09/03 03:33:04;;;;;;;16.73;9.55;;;8.20;99.90;;;;;;4996307;28;20022;-44
2021/09/03 03:35:30;;;;;;;16.70;9.52;;;8.20;99.90;;;;;;4996254;28;20022;-47
2021/09/03 03:37:56;;;;;;;17.90;8.50;;;8.20;99.90;;;;;;4996123;28;20383;-45
2021/09/03 03:40:21;;;;;;;12.75;7.70;;;8.10;99.90;;;;;;4996100;28;20091;-48
2021/09/03 03:42:47;;;;;;;16.23;8.93;;;8.20;99.90;;;;;;4996065;28;20018;-45
2021/09/03 03:45:13;;;;;;;18.20;10.00;;;8.20;99.90;;;;;;4995169;28;20117;-43
2021/09/03 03:47:39;;;;;;;17.00;9.30;;;8.20;99.90;;;;;;4995173;28;20033;-42
2021/09/03 03:50:06;;;;;;;17.70;10.07;;;8.20;99.90;;;;;;4995760;28;20194;-45
2021/09/03 03:52:31;;;;;;;14.15;8.45;;;8.30;99.90;;;;;;4995928;28;20046;-45
2021/09/03 03:54:57;;;;;;;15.88;9.38;;;8.40;99.90;;;;;;4995804;28;20080;-43
2021/09/03 03:57:22;;;;;;;15.02;8.45;;;8.50;99.90;;;;;;4995622;28;20382;-49
2021/09/03 03:59:48;;;;;;;21.45;9.65;;;8.50;99.90;;;;;;4995781;28;20023;-44
2021/09/03 04:02:13;;;;;;;19.02;9.50;;;8.50;99.90;;;;;;4994827;28;20031;-48
2021/09/03 04:04:39;;;;;;;15.02;8.10;;;8.60;99.90;;;;;;4995661;28;20050;-45
2021/09/03 04:07:04;;;;;;;18.38;9.80;;;8.60;99.90;;;;;;4995688;28;20073;-43
2021/09/03 04:09:30;;;;;;;20.58;9.93;;;8.60;99.90;;;;;;4995606;28;20474;-44
2021/09/03 04:11:55;;;;;;;17.33;8.98;;;8.70;99.90;;;;;;4995429;28;20041;-46
2021/09/03 04:14:21;;;;;;;19.48;9.57;;;8.70;99.90;;;;;;4995600;28;20042;-47
2021/09/03 04:16:47;;;;;;;14.20;8.70;;;8.80;99.90;;;;;;4994348;28;20026;-43
2021/09/03 04:19:13;;;;;;;20.60;9.98;;;8.80;99.90;;;;;;5009861;28;20041;-44
2021/09/03 04:21:39;;;;;;;18.00;8.85;;;8.80;99.90;;;;;;5013507;28;20025;-46
2021/09/03 04:24:05;;;;;;;16.58;9.02;;;8.90;99.90;;;;;;5013507;28;20030;-42
2021/09/03 04:26:31;;;;;;;21.80;9.57;;;8.90;99.90;;;;;;5013556;28;20022;-44
2021/09/03 04:28:57;;;;;;;20.42;9.23;;;9.00;99.90;;;;;;4999573;28;20070;-46
2021/09/03 04:31:22;;;;;;;19.92;9.32;;;9.00;99.90;;;;;;4993004;28;20034;-47
2021/09/03 04:33:48;;;;;;;17.17;8.38;;;9.10;99.90;;;;;;4994576;28;20029;-43
2021/09/03 04:36:13;;;;;;;17.58;8.93;;;9.20;99.90;;;;;;5029209;28;20029;-45
2021/09/03 04:38:39;;;;;;;17.98;8.90;;;9.20;99.90;;;;;;5011853;28;20113;-45
2021/09/03 04:41:04;;;;;;;26.05;9.93;;;9.30;99.90;;;;;;5014107;28;20030;-48
2021/09/03 04:43:30;;;;;;;15.68;8.40;;;9.40;99.90;;;;;;5014340;28;20022;-45
2021/09/03 04:45:55;;;;;;;13.05;7.88;;;9.40;99.90;;;;;;5013206;28;20113;-41
2021/09/03 04:48:21;;;;;;;18.98;9.30;;;9.50;99.90;;;;;;5014302;28;20040;-45
2021/09/03 04:50:46;;;;;;;15.77;9.15;;;9.60;99.90;;;;;;5014026;28;20034;-44
2021/09/03 04:53:12;;;;;;;16.83;8.30;;;9.70;99.90;;;;;;5014608;28;20040;-44
2021/09/03 04:55:38;;;;;;;18.25;8.85;;;9.80;99.90;;;;;;5014075;28;20030;-46
2021/09/03 04:58:03;;;;;;;18.63;8.45;;;9.90;99.90;;;;;;5014188;28;20109;-43
2021/09/03 05:00:29;;;;;;;14.75;8.45;;;10.00;99.90;;;;;;5012952;28;20029;-48
2021/09/03 05:02:54;;;;;;;14.35;7.18;;;10.10;99.90;;;;;;5014104;28;20018;-44
2021/09/03 05:05:19;;;;;;;19.92;9.25;;;10.20;99.90;;;;;;5013997;28;20498;-48
2021/09/03 05:07:45;;;;;;;17.30;8.82;;;10.30;99.90;;;;;;5013921;28;20033;-45
2021/09/03 05:10:11;;;;;;;17.77;9.45;;;10.50;99.90;;;;;;5013659;28;20117;-46
2021/09/03 05:12:38;;;;;;;17.05;10.05;;;10.60;99.90;;;;;;5013862;28;20037;-42
2021/09/03 05:15:10;;;;;;;15.70;8.88;;;10.80;99.90;;;;;;5012612;28;20026;-44
2021/09/03 05:17:37;;;;;;;12.82;8.27;;;11.30;99.90;;;;;;5013870;28;20048;-43
2021/09/03 05:20:05;;;;;;;14.55;7.97;;;11.90;99.90;;;;;;5013762;28;20026;-46
2021/09/03 05:22:32;;;;;;;14.27;8.88;;;12.60;99.90;;;;;;5013706;28;20026;-45
2021/09/03 05:24:58;;;;;;;14.13;7.93;;;13.10;99.90;;;;;;5013709;28;20030;-44
2021/09/03 05:27:23;;;;;;;11.88;7.47;;;13.70;99.90;;;;;;5013726;28;20040;-46
2021/09/03 05:29:49;;;;;;;10.07;7.40;;;14.30;99.90;;;;;;5013717;28;20030;-46
2021/09/03 05:32:14;;;;;;;12.65;7.78;;;14.90;99.90;;;;;;5012415;28;20377;-50
2021/09/03 05:34:40;;;;;;;13.18;8.38;;;15.40;99.90;;;;;;5013625;28;20022;-45
2021/09/03 05:37:05;;;;;;;9.73;6.82;;;15.90;99.90;;;;;;5013493;28;20030;-48
2021/09/03 05:39:31;;;;;;;14.38;8.75;;;16.40;99.90;;;;;;5013410;28;20034;-45
2021/09/03 05:45:18;;;;;;;14.18;7.10;;;17.40;99.90;;;;;;5083807;23;20078;-46
2021/09/03 05:47:45;;;;;;;13.55;8.23;;;18.00;99.90;;;;;;4993804;28;20038;-47
2021/09/03 05:50:12;;;;;;;10.20;6.85;;;18.50;99.90;;;;;;4993756;28;20034;-45
2021/09/03 05:52:38;;;;;;;11.43;6.93;;;18.90;99.90;;;;;;4993710;28;20499;-49
2021/09/03 05:55:04;;;;;;;10.75;6.72;;;19.20;99.90;;;;;;4993776;28;20034;-47
2021/09/03 05:57:29;;;;;;;11.40;7.30;;;19.50;99.90;;;;;;4993533;28;20110;-47
2021/09/03 05:59:55;;;;;;;12.43;8.02;;;19.80;99.90;;;;;;4992428;28;20101;-46
2021/09/03 06:02:20;;;;;;;13.27;6.40;;;20.10;99.90;;;;;;4993431;28;20234;-47
2021/09/03 06:04:46;;;;;;;12.32;6.60;;;20.50;99.90;;;;;;4993426;28;20073;-46
2021/09/03 06:07:11;;;;;;;8.40;6.22;;;20.90;99.90;;;;;;4993189;28;20037;-48
2021/09/03 06:09:37;;;;;;;8.40;6.40;;;21.30;99.90;;;;;;4993452;28;20381;-45
2021/09/03 06:12:03;;;;;;;9.55;6.22;;;21.70;99.90;;;;;;4992927;28;20030;-46
2021/09/03 06:14:28;;;;;;;9.65;6.43;;;22.20;99.90;;;;;;5007219;28;20023;-47
2021/09/03 06:16:54;;;;;;;9.80;7.18;;;22.80;99.90;;;;;;4993376;28;20062;-48
2021/09/03 06:19:20;;;;;;;8.25;6.68;;;23.30;99.90;;;;;;4993334;28;20038;-46
2021/09/03 06:21:46;;;;;;;8.75;6.10;;;23.70;99.90;;;;;;4993289;28;20023;-48
2021/09/03 06:24:30;;;;;;;12.82;7.53;;;24.00;99.90;;;;;;4993567;28;20109;-49
2021/09/03 06:26:58;;;;;;;9.38;6.57;;;24.40;99.90;;;;;;4993284;28;20440;-47
2021/09/03 06:32:19;;;;;;;9.18;6.10;;;24.90;99.90;;;;;;4993227;28;20053;-48
2021/09/03 06:34:53;;;;;;;8.77;6.50;;;25.40;99.90;;;;;;4993221;28;20404;-47
2021/09/03 06:37:19;;;;;;;12.20;7.55;;;25.80;99.90;;;;;;4993152;28;20454;-45
2021/09/03 06:39:46;;;;;;;9.32;6.80;;;26.10;99.90;;;;;;4993091;28;20193;-49
2021/09/03 06:42:12;;;;;;;9.05;6.38;;;26.50;99.90;;;;;;4993173;28;20049;-46
2021/09/03 06:44:38;;;;;;;8.68;6.38;;;26.80;99.90;;;;;;4991801;28;20030;-49
2021/09/03 06:47:05;;;;;;;11.40;6.97;;;27.20;99.90;;;;;;4993052;28;20078;-48
2021/09/03 06:49:31;;;;;;;10.38;7.18;;;27.50;98.40;;;;;;4993054;28;20081;-48
2021/09/03 06:51:57;;;;;;;7.25;5.55;;;27.70;95.80;;;;;;4993151;28;20026;-48
2021/09/03 06:54:22;;;;;;;8.68;6.35;;;27.90;95.20;;;;;;4993486;28;20511;-47
2021/09/03 06:56:48;;;;;;;9.13;6.88;;;28.30;93.10;;;;;;4992839;28;20031;-47
2021/09/03 06:59:13;;;;;;;8.77;6.78;;;28.60;91.40;;;;;;4991669;28;20041;-46
2021/09/03 07:01:39;;;;;;;9.60;5.97;;;29.00;89.80;;;;;;4993173;28;20393;-46
2021/09/03 07:04:05;;;;;;;9.32;6.18;;;29.20;86.80;;;;;;4992980;28;20456;-47
2021/09/03 07:06:31;;;;;;;7.13;6.05;;;29.60;83.70;;;;;;4992904;28;20412;-47
2021/09/03 07:08:57;;;;;;;9.95;7.72;;;29.90;81.10;;;;;;4992958;28;20034;-44
2021/09/03 07:11:23;;;;;;;11.32;6.90;;;30.10;77.50;;;;;;4992921;28;20532;-49
2021/09/03 07:13:49;;;;;;;7.15;6.07;;;30.20;76.00;;;;;;4991479;28;20121;-46
2021/09/03 07:16:14;;;;;;;8.00;6.10;;;30.40;73.40;;;;;;4992847;28;20114;-45
2021/09/03 07:18:40;;;;;;;9.60;7.22;;;30.60;70.40;;;;;;4992847;28;20015;-48
2021/09/03 07:21:06;;;;;;;15.32;7.93;;;30.90;68.50;;;;;;4992893;28;20023;-49
2021/09/03 07:23:31;;;;;;;11.48;7.07;;;30.90;60.90;;;;;;4995376;28;20030;-50
2021/09/03 07:25:57;;;;;;;10.00;7.10;;;31.00;61.80;;;;;;4996449;28;20038;-50
2021/09/03 07:28:22;;;;;;;8.60;6.57;;;31.20;60.20;;;;;;4995076;28;20089;-48
2021/09/03 07:30:48;;;;;;;9.35;6.85;;;31.30;57.50;;;;;;4996355;28;20030;-46
2021/09/03 07:33:13;;;;;;;9.95;7.55;;;31.40;55.70;;;;;;4996429;28;20030;-45
2021/09/03 07:35:39;;;;;;;8.07;6.57;;;31.50;54.50;;;;;;4996250;28;20495;-47
2021/09/03 07:38:04;;;;;;;7.68;6.43;;;31.60;52.20;;;;;;4996292;28;20087;-48
2021/09/03 07:40:32;;;;;;;9.30;5.85;;;32.00;52.90;;;;;;4996233;28;20210;-48
2021/09/03 07:43:05;;;;;;;7.95;6.53;;;32.30;50.10;;;;;;4994906;28;20027;-45
2021/09/03 07:45:32;;;;;;;10.15;6.88;;;32.20;48.10;;;;;;4996018;28;20026;-46
2021/09/03 07:47:57;;;;;;;11.95;7.30;;;31.70;48.50;;;;;;4996039;28;20036;-46
2021/09/03 07:50:23;;;;;;;7.93;6.13;;;31.10;47.80;;;;;;4996072;28;20109;-47
2021/09/03 07:52:48;;;;;;;9.15;6.20;;;30.70;47.60;;;;;;4995921;28;20035;-46
2021/09/03 07:55:14;;;;;;;10.85;6.63;;;29.90;48.60;;;;;;4995941;28;20392;-49
2021/09/03 07:57:39;;;;;;;7.93;6.10;;;29.70;49.10;;;;;;4995983;28;20044;-46
2021/09/03 08:00:05;;;;;;;8.50;6.10;;;29.70;48.30;;;;;;4994629;28;20076;-44
2021/09/03 08:02:31;;;;;;;8.68;5.95;;;29.50;48.20;;;;;;4995858;28;20213;-46
2021/09/03 08:04:56;;;;;;;11.73;7.35;;;29.50;47.70;;;;;;4995721;28;20110;-45
2021/09/03 08:07:27;;;;;;;9.52;6.03;;;30.00;45.30;;;;;;4995764;28;20481;-46
2021/09/03 08:09:53;;;;;;;6.80;5.72;;;30.20;43.00;;;;;;4995453;28;20489;-45
2021/09/03 08:12:18;;;;;;;7.35;5.13;;;30.90;42.50;;;;;;4995651;28;20105;-49
2021/09/03 08:14:43;;;;;;;8.05;6.35;;;30.50;42.60;;;;;;4994237;28;20101;-46
2021/09/03 08:17:09;;;;;;;8.65;5.43;;;29.80;43.00;;;;;;4995523;28;20418;-48
2021/09/03 08:19:34;;;;;;;8.43;6.47;;;29.50;43.50;;;;;;4995604;28;20265;-44
2021/09/03 08:22:00;;;;;;;8.10;5.90;;;29.70;42.10;;;;;;4995480;28;20469;-46
2021/09/03 08:24:25;;;;;;;7.97;5.15;;;30.20;39.20;;;;;;4995410;28;20030;-45
2021/09/03 08:26:51;;;;;;;7.20;5.32;;;31.00;40.20;;;;;;4995197;28;20129;-46
2021/09/03 08:29:16;;;;;;;9.35;6.18;;;31.60;38.50;;;;;;4994022;28;20109;-48
2021/09/03 08:31:42;;;;;;;13.27;5.88;;;31.90;37.40;;;;;;4995204;28;20026;-49
2021/09/03 08:34:07;;;;;;;9.80;6.05;;;32.20;35.80;;;;;;4994628;28;20076;-47
2021/09/03 08:36:33;;;;;;;9.00;6.32;;;32.10;31.90;;;;;;4995035;28;20022;-46
2021/09/03 08:38:59;;;;;;;13.23;6.50;;;31.90;34.20;;;;;;4994988;28;20030;-45
2021/09/03 08:41:24;;;;;;;12.10;6.45;;;31.90;34.00;;;;;;4994969;28;20401;-45
2021/09/03 08:43:57;;;;;;;9.38;5.82;;;32.10;33.40;;;;;;4993699;28;20089;-45
2021/09/03 08:46:32;;;;;;;11.40;7.43;;;32.00;32.50;;;;;;4994942;28;20047;-46
2021/09/03 08:49:00;;;;;;;7.27;5.80;;;31.90;29.50;;;;;;4994875;28;20026;-46
2021/09/03 08:51:26;;;;;;;7.70;5.72;;;31.70;32.00;;;;;;5010016;28;20062;-46
2021/09/03 08:53:51;;;;;;;8.60;5.95;;;31.80;31.80;;;;;;4994661;28;20073;-46
2021/09/03 08:56:21;;;;;;;7.63;5.70;;;32.00;31.70;;;;;;4994726;28;20034;-49
2021/09/03 08:58:47;;;;;;;9.25;5.70;;;32.10;30.10;;;;;;4993479;28;20493;-46
2021/09/03 09:01:15;;;;;;;10.00;6.00;;;31.90;30.10;;;;;;4994718;28;20034;-45
2021/09/03 09:03:47;;;;;;;9.13;5.80;;;31.90;30.00;;;;;;4994596;28;20027;-45
2021/09/03 09:06:26;;;;;;;10.25;5.70;;;31.80;30.00;;;;;;4994516;28;20038;-43
2021/09/03 09:08:57;;;;;;;6.65;5.03;;;31.90;29.50;;;;;;4994536;28;20405;-45
2021/09/03 09:11:27;;;;;;;8.20;5.63;;;31.90;29.00;;;;;;4994711;28;20449;-46
2021/09/03 09:13:57;;;;;;;7.88;5.15;;;31.90;27.80;;;;;;4993102;28;20182;-47
2021/09/03 09:16:23;;;;;;;8.50;6.38;;;31.90;28.40;;;;;;4994418;28;20362;-48
2021/09/03 09:18:54;;;;;;;8.10;5.68;;;32.00;28.70;;;;;;4994202;28;20018;-47
2021/09/03 09:21:30;;;;;;;10.32;5.82;;;31.90;28.00;;;;;;4994418;28;20026;-48
2021/09/03 09:24:11;;;;;;;10.43;5.93;;;31.70;27.70;;;;;;4994218;28;20022;-48
2021/09/03 09:26:54;;;;;;;9.52;5.43;;;31.60;28.10;;;;;;4994273;28;20062;-48
2021/09/03 09:29:31;;;;;;;7.55;5.32;;;31.90;27.60;;;;;;4992777;28;20023;-52
2021/09/03 09:32:02;;;;;;;9.48;6.15;;;32.00;26.20;;;;;;4994065;28;20523;-45
2021/09/03 09:34:37;;;;;;;11.18;5.45;;;31.80;27.30;;;;;;4994132;28;20042;-46
2021/09/03 09:37:05;;;;;;;9.93;6.45;;;31.70;27.20;;;;;;4993977;28;20069;-51
2021/09/03 09:39:44;;;;;;;13.52;6.88;;;31.40;26.80;;;;;;4994026;28;20029;-47
2021/09/03 09:42:20;;;;;;;10.27;6.38;;;31.00;26.50;;;;;;4993975;28;20097;-48
2021/09/03 09:44:45;;;;;;;9.00;5.57;;;30.90;27.60;;;;;;4992627;28;20019;-50
2021/09/03 09:47:12;;;;;;;9.95;5.88;;;30.90;27.80;;;;;;4993191;28;20072;-47
2021/09/03 09:49:39;;;;;;;9.45;5.53;;;30.80;27.80;;;;;;4993743;28;20527;-46
2021/09/03 09:52:06;;;;;;;9.38;6.10;;;30.80;27.50;;;;;;4993726;28;20084;-46
2021/09/03 09:54:31;;;;;;;7.60;5.75;;;30.60;27.30;;;;;;4993741;28;20057;-46
2021/09/03 09:57:02;;;;;;;9.23;5.63;;;30.30;27.40;;;;;;4993607;28;20222;-45
2021/09/03 09:59:30;;;;;;;9.45;5.50;;;30.20;27.70;;;;;;4992700;28;20392;-46
2021/09/03 10:01:59;;;;;;;7.05;5.13;;;29.90;28.10;;;;;;4993488;28;20037;-45
2021/09/03 10:04:26;;;;;;;7.63;5.28;;;29.50;28.60;;;;;;4993662;28;20488;-46
2021/09/03 10:06:55;;;;;;;7.65;5.90;;;29.30;29.10;;;;;;4993315;28;20030;-48
2021/09/03 10:09:22;;;;;;;8.55;5.53;;;28.90;29.50;;;;;;4993690;28;20022;-45
2021/09/03 10:11:53;;;;;;;7.70;4.68;;;28.40;30.20;;;;;;4993357;28;20066;-47
2021/09/03 10:14:22;;;;;;;8.13;4.93;;;27.90;31.00;;;;;;4992304;28;20069;-47
2021/09/03 10:16:49;;;;;;;7.40;5.47;;;27.50;31.80;;;;;;4993435;28;20026;-48
2021/09/03 10:19:30;;;;;;;6.88;5.20;;;27.00;32.60;;;;;;4993369;28;20030;-46
2021/09/03 10:22:02;;;;;;;9.00;5.68;;;26.70;34.00;;;;;;4993356;28;20027;-45
2021/09/03 10:24:29;;;;;;;9.32;5.63;;;26.30;35.90;;;;;;4993432;28;20038;-43
2021/09/03 10:26:57;;;;;;;9.93;5.22;;;26.00;36.20;;;;;;4993483;28;20105;-44
2021/09/03 10:29:29;;;;;;;7.95;5.25;;;25.60;37.20;;;;;;4992130;28;20074;-44
2021/09/03 10:32:07;;;;;;;11.10;6.00;;;25.30;38.40;;;;;;4993086;28;20497;-44
2021/09/03 10:34:50;;;;;;;7.60;5.20;;;25.00;40.10;;;;;;4993345;28;20114;-45
2021/09/03 10:37:15;;;;;;;7.53;5.05;;;24.70;40.50;;;;;;4993190;28;20030;-45
2021/09/03 10:39:47;;;;;;;6.68;5.25;;;24.50;40.80;;;;;;4993294;28;20558;-46
2021/09/03 10:42:48;;;;;;;8.10;5.25;;;24.40;41.50;;;;;;4993055;28;20109;-50
2021/09/03 10:45:23;;;;;;;11.02;6.00;;;24.20;46.40;;;;;;4993085;28;20034;-45
2021/09/03 10:48:03;;;;;;;8.98;6.07;;;24.10;44.30;;;;;;4993181;28;20038;-46
2021/09/03 10:50:35;;;;;;;8.13;5.57;;;23.90;45.60;;;;;;4992901;28;20027;-47
2021/09/03 10:53:12;;;;;;;10.07;6.03;;;23.90;46.20;;;;;;4993082;28;20032;-48
2021/09/03 10:55:58;;;;;;;9.38;6.55;;;23.70;47.10;;;;;;4993182;28;20026;-46
2021/09/03 10:58:56;;;;;;;10.32;6.20;;;23.70;49.50;;;;;;4994696;28;20030;-48
2021/09/03 11:01:25;;;;;;;8.35;5.32;;;23.70;50.30;;;;;;4997045;28;20034;-48
2021/09/03 11:03:58;;;;;;;10.15;5.65;;;23.70;48.50;;;;;;4997148;28;20026;-45
2021/09/03 11:06:37;;;;;;;8.00;4.78;;;23.70;48.90;;;;;;4997010;28;20022;-44
2021/09/03 11:09:15;;;;;;;10.40;5.68;;;23.60;50.10;;;;;;4996750;28;20113;-44
2021/09/03 11:11:44;;;;;;;10.77;5.80;;;23.60;52.20;;;;;;4996743;28;20196;-45
2021/09/03 11:14:29;;;;;;;6.80;5.32;;;23.60;50.70;;;;;;4995824;28;20045;-47
2021/09/03 11:17:06;;;;;;;7.75;5.90;;;23.50;52.20;;;;;;4996594;28;20440;-46
2021/09/03 11:19:34;;;;;;;8.63;5.35;;;23.40;51.20;;;;;;4996571;28;20472;-46
2021/09/03 11:22:22;;;;;;;8.30;4.68;;;23.40;51.50;;;;;;4996380;28;20072;-48
2021/09/03 11:24:56;;;;;;;10.68;6.70;;;23.30;54.40;;;;;;4996477;28;20026;-46
2021/09/03 11:27:27;;;;;;;11.85;6.15;;;23.30;54.30;;;;;;4996561;28;20022;-48
2021/09/03 11:29:56;;;;;;;8.52;5.47;;;23.30;53.90;;;;;;4995564;28;20045;-48
2021/09/03 11:32:32;;;;;;;8.90;5.13;;;23.30;53.70;;;;;;4996169;28;20040;-47
2021/09/03 11:35:08;;;;;;;;;;;23.30;53.90;;;;;;4996814;28;20026;-44
2021/09/03 11:37:45;;;;;;;7.18;4.95;;;23.30;54.20;;;;;;4996295;28;20376;-47
2021/09/03 11:40:26;;;;;;;7.55;5.30;;;23.30;53.50;;;;;;4996202;28;20033;-51
2021/09/03 11:42:56;;;;;;;9.48;5.38;;;23.30;53.40;;;;;;4995166;28;20034;-48
2021/09/03 11:45:25;;;;;;;8.50;5.80;;;23.30;54.30;;;;;;4995937;28;20037;-47
2021/09/03 11:47:56;;;;;;;8.40;5.25;;;23.30;55.30;;;;;;4996189;28;20548;-47
2021/09/03 11:50:30;;;;;;;7.18;4.28;;;23.30;55.00;;;;;;4996158;28;20073;-46
2021/09/03 11:52:57;;;;;;;4.80;4.13;;;23.30;54.70;;;;;;4991156;28;20054;-50
2021/09/03 11:55:23;;;;;;;9.18;4.70;;;23.30;54.40;;;;;;4994436;28;20030;-50
2021/09/03 11:57:58;;;;;;;7.35;4.53;;;23.20;54.10;;;;;;4993703;28;20034;-48
2021/09/03 12:00:26;;;;;;;8.32;4.82;;;23.20;54.20;;;;;;4994794;28;20041;-48
2021/09/03 12:02:53;;;;;;;5.10;4.28;;;23.20;53.50;;;;;;4994581;28;20033;-48
2021/09/03 12:05:20;;;;;;;6.22;4.97;;;23.20;53.10;;;;;;4994195;28;20025;-46
2021/09/03 12:08:01;;;;;;;10.48;5.07;;;23.30;52.70;;;;;;4994434;28;20054;-46
2021/09/03 12:11:02;;;;;;;6.50;4.68;;;23.20;55.30;;;;;;4993435;28;20026;-49
2021/09/03 12:13:37;;;;;;;8.73;5.88;;;23.20;54.80;;;;;;4993562;28;20058;-44
2021/09/03 12:16:06;;;;;;;8.15;4.93;;;23.20;54.00;;;;;;4994469;28;20573;-47
2021/09/03 12:18:37;;;;;;;9.48;5.95;;;23.20;55.10;;;;;;4994227;28;20038;-45
2021/09/03 12:21:11;;;;;;;7.38;5.05;;;23.20;55.60;;;;;;4994208;28;20023;-48
2021/09/03 12:23:40;;;;;;;10.95;5.47;;;23.20;56.50;;;;;;4994305;28;20050;-45
2021/09/03 12:26:16;;;;;;;9.10;4.93;;;23.20;56.10;;;;;;4994071;28;20022;-47
2021/09/03 12:28:45;;;;;;;8.88;5.15;;;23.20;56.10;;;;;;4993060;28;20106;-47
2021/09/03 12:31:22;;;;;;;7.20;5.15;;;23.20;55.60;;;;;;4993983;28;20023;-46
2021/09/03 12:33:56;;;;;;;8.00;4.60;;;23.20;55.80;;;;;;4994049;28;20445;-46
2021/09/03 12:36:30;;;;;;;6.88;4.78;;;23.30;56.00;;;;;;4993673;28;20037;-49
2021/09/03 12:39:06;;;;;;;6.43;4.57;;;23.20;56.50;;;;;;4993988;28;20058;-46
2021/09/03 12:41:33;;;;;;;6.65;4.60;;;23.30;56.20;;;;;;4993820;28;20376;-45
2021/09/03 12:44:04;;;;;;;8.10;4.72;;;23.20;55.60;;;;;;4992935;28;20113;-51
2021/09/03 12:46:38;;;;;;;7.22;5.10;;;23.20;56.10;;;;;;4994827;28;20050;-47
2021/09/03 12:49:10;;;;;;;7.75;4.63;;;23.30;56.60;;;;;;4994976;28;20478;-47
2021/09/03 12:51:45;;;;;;;8.52;5.75;;;23.30;56.00;;;;;;5009962;28;20043;-44
2021/09/03 12:54:12;;;;;;;8.82;5.18;;;23.30;55.50;;;;;;4994769;28;20034;-45
2021/09/03 12:56:39;;;;;;;8.15;5.22;;;23.30;55.80;;;;;;4994817;28;20030;-45